createdAt,value
2023-04-24T00:00:19.207Z,11.40
2023-04-24T00:02:48.343Z,11.30
2023-04-24T00:05:18.362Z,11.30
2023-04-24T00:07:46.983Z,11.20
2023-04-24T00:10:15.035Z,11.10
2023-04-24T00:12:43.359Z,11.00
2023-04-24T00:15:12.629Z,10.90
2023-04-24T00:17:40.792Z,10.80
2023-04-24T00:20:11.294Z,10.80
2023-04-24T00:22:40.954Z,10.80
2023-04-24T00:25:09.749Z,10.90
2023-04-24T00:27:38.285Z,10.80
2023-04-24T00:30:07.547Z,10.80
2023-04-24T00:32:35.554Z,10.80
2023-04-24T00:35:03.580Z,10.80
2023-04-24T00:37:31.532Z,10.90
2023-04-24T00:40:01.034Z,10.90
2023-04-24T00:42:29.201Z,10.90
2023-04-24T00:44:58.828Z,11.00
2023-04-24T00:47:27.819Z,11.00
2023-04-24T00:49:55.817Z,11.10
2023-04-24T00:52:25.319Z,11.10
2023-04-24T00:54:53.375Z,11.10
2023-04-24T00:57:24.670Z,11.20
2023-04-24T00:59:53.374Z,11.20
2023-04-24T01:02:23.510Z,11.20
2023-04-24T01:04:52.449Z,11.20
2023-04-24T01:07:22.332Z,11.20
2023-04-24T01:09:52.368Z,11.20
2023-04-24T01:12:21.833Z,11.20
2023-04-24T01:14:49.897Z,11.20
2023-04-24T01:17:17.882Z,11.20
2023-04-24T01:19:46.695Z,11.20
2023-04-24T01:22:17.264Z,11.20
2023-04-24T01:25:34.992Z,11.20
2023-04-24T01:28:03.316Z,11.20
2023-04-24T01:30:32.189Z,11.10
2023-04-24T01:33:01.461Z,11.10
2023-04-24T01:35:29.645Z,11.10
2023-04-24T01:37:58.989Z,11.20
2023-04-24T01:40:27.996Z,11.20
2023-04-24T01:42:56.336Z,11.20
2023-04-24T01:45:24.315Z,11.20
2023-04-24T01:47:52.781Z,11.20
2023-04-24T01:50:21.052Z,11.10
2023-04-24T01:52:49.016Z,11.10
2023-04-24T01:55:18.394Z,11.10
2023-04-24T01:57:46.623Z,11.20
2023-04-24T02:00:15.401Z,11.20
2023-04-24T02:02:46.499Z,11.10
2023-04-24T02:05:16.092Z,11.10
2023-04-24T02:07:44.101Z,11.20
2023-04-24T02:10:13.166Z,11.10
2023-04-24T02:12:42.485Z,11.20
2023-04-24T02:15:11.266Z,11.10
2023-04-24T02:17:39.459Z,11.20
2023-04-24T02:20:09.145Z,11.10
2023-04-24T02:22:37.137Z,11.10
2023-04-24T02:25:06.108Z,11.10
2023-04-24T02:27:34.088Z,11.10
2023-04-24T02:30:04.022Z,11.00
2023-04-24T02:32:32.285Z,11.10
2023-04-24T02:35:00.362Z,11.00
2023-04-24T02:37:28.444Z,11.00
2023-04-24T02:39:56.378Z,11.00
2023-04-24T02:42:24.349Z,11.10
2023-04-24T02:44:52.695Z,11.10
2023-04-24T02:47:22.013Z,11.00
2023-04-24T02:49:49.930Z,11.00
2023-04-24T02:52:17.938Z,11.10
2023-04-24T02:54:45.942Z,11.00
2023-04-24T02:57:13.950Z,11.00
2023-04-24T02:59:42.114Z,10.90
2023-04-24T03:02:10.297Z,10.90
2023-04-24T03:04:41.170Z,10.80
2023-04-24T03:07:09.284Z,10.80
2023-04-24T03:09:37.208Z,10.80
2023-04-24T03:12:05.314Z,10.80
2023-04-24T03:14:33.271Z,10.90
2023-04-24T03:17:01.569Z,10.80
2023-04-24T03:19:29.529Z,10.80
2023-04-24T03:21:59.030Z,10.90
2023-04-24T03:24:29.000Z,10.90
2023-04-24T03:26:57.876Z,10.90
2023-04-24T03:29:25.863Z,10.90
2023-04-24T03:31:53.850Z,10.90
2023-04-24T03:34:21.820Z,10.80
2023-04-24T03:36:49.782Z,10.80
2023-04-24T03:39:19.090Z,10.80
2023-04-24T03:41:47.295Z,10.80
2023-04-24T03:44:15.565Z,10.80
2023-04-24T03:46:43.586Z,10.80
2023-04-24T03:49:11.540Z,10.80
2023-04-24T03:51:39.519Z,10.70
2023-04-24T03:54:07.464Z,10.80
2023-04-24T03:56:36.755Z,10.80
2023-04-24T03:59:04.717Z,10.80
2023-04-24T04:01:32.803Z,10.70
2023-04-24T04:04:00.817Z,10.70
2023-04-24T04:06:29.588Z,10.70
2023-04-24T04:08:57.533Z,10.70
2023-04-24T04:11:25.909Z,10.70
2023-04-24T04:13:55.728Z,10.70
2023-04-24T04:16:23.752Z,10.70
2023-04-24T04:18:51.775Z,10.70
2023-04-24T04:21:19.733Z,10.70
2023-04-24T04:23:47.668Z,10.70
2023-04-24T04:26:15.630Z,10.70
2023-04-24T04:28:45.529Z,10.70
2023-04-24T04:31:14.853Z,10.70
2023-04-24T04:33:42.795Z,10.70
2023-04-24T04:36:10.765Z,10.70
2023-04-24T04:38:39.328Z,10.70
2023-04-24T04:41:08.157Z,10.70
2023-04-24T04:43:37.355Z,10.70
2023-04-24T04:46:05.459Z,10.70
2023-04-24T04:48:34.866Z,10.90
2023-04-24T04:51:02.805Z,10.70
2023-04-24T04:53:30.882Z,10.70
2023-04-24T04:55:58.876Z,10.70
2023-04-24T04:58:26.880Z,10.70
2023-04-24T05:00:54.831Z,10.70
2023-04-24T05:03:22.901Z,10.80
2023-04-24T05:05:52.290Z,10.70
2023-04-24T05:08:27.113Z,10.70
2023-04-24T05:10:56.329Z,10.70
2023-04-24T05:15:55.243Z,10.60
2023-04-24T05:18:23.207Z,10.60
2023-04-24T05:20:52.509Z,10.50
2023-04-24T05:23:20.500Z,10.40
2023-04-24T05:25:48.521Z,10.40
2023-04-24T05:28:17.557Z,10.40
2023-04-24T05:30:45.697Z,10.40
2023-04-24T05:33:15.115Z,10.50
2023-04-24T05:35:47.506Z,10.60
2023-04-24T05:38:18.813Z,10.60
2023-04-24T05:40:46.774Z,10.60
2023-04-24T05:43:14.882Z,10.50
2023-04-24T05:45:42.832Z,10.50
2023-04-24T05:48:10.910Z,10.60
2023-04-24T05:50:38.897Z,10.50
2023-04-24T05:53:08.100Z,10.70
2023-04-24T05:55:37.855Z,10.70
2023-04-24T05:58:05.838Z,10.70
2023-04-24T06:00:34.755Z,10.60
2023-04-24T06:03:04.774Z,10.60
2023-04-24T06:05:33.246Z,10.50
2023-04-24T06:08:01.266Z,10.40
2023-04-24T06:10:29.346Z,11.10
2023-04-24T06:13:01.671Z,11.70
2023-04-24T06:15:31.361Z,12.10
2023-04-24T06:17:59.855Z,12.40
2023-04-24T06:20:28.192Z,12.80
2023-04-24T06:22:56.306Z,12.20
2023-04-24T06:25:27.122Z,11.80
2023-04-24T06:27:55.739Z,11.50
2023-04-24T06:30:25.642Z,11.40
2023-04-24T06:32:53.749Z,11.30
2023-04-24T06:35:21.748Z,11.20
2023-04-24T06:37:49.887Z,11.10
2023-04-24T06:40:19.513Z,11.00
2023-04-24T06:42:47.565Z,11.00
2023-04-24T06:45:15.649Z,10.90
2023-04-24T06:47:44.991Z,10.70
2023-04-24T06:50:13.544Z,10.80
2023-04-24T06:52:42.380Z,10.70
2023-04-24T06:55:12.039Z,10.80
2023-04-24T06:57:40.018Z,10.90
2023-04-24T07:00:10.332Z,11.10
2023-04-24T07:02:38.621Z,11.00
2023-04-24T07:05:09.396Z,11.00
2023-04-24T07:07:38.830Z,10.90
2023-04-24T07:10:07.878Z,11.00
2023-04-24T07:12:36.692Z,11.00
2023-04-24T07:15:05.271Z,11.20
2023-04-24T07:17:33.342Z,11.50
2023-04-24T07:20:01.383Z,11.70
2023-04-24T07:22:30.695Z,11.90
2023-04-24T07:24:58.697Z,11.80
2023-04-24T07:27:27.510Z,11.90
2023-04-24T07:29:55.534Z,12.10
2023-04-24T07:32:23.520Z,12.30
2023-04-24T07:34:51.461Z,12.20
2023-04-24T07:37:19.462Z,12.30
2023-04-24T07:39:48.952Z,12.30
2023-04-24T07:42:16.917Z,12.30
2023-04-24T07:44:45.036Z,12.20
2023-04-24T07:47:13.054Z,12.00
2023-04-24T07:49:41.152Z,12.00
2023-04-24T07:52:09.322Z,12.10
2023-04-24T07:54:38.109Z,12.20
2023-04-24T07:57:09.209Z,12.30
2023-04-24T07:59:37.251Z,12.30
2023-04-24T08:02:05.538Z,12.20
2023-04-24T08:04:33.662Z,12.10
2023-04-24T08:07:01.721Z,12.10
2023-04-24T08:09:29.703Z,12.10
2023-04-24T08:11:58.196Z,12.10
2023-04-24T08:14:27.574Z,12.30
2023-04-24T08:16:57.136Z,12.80
2023-04-24T08:19:25.080Z,13.60
2023-04-24T08:21:53.019Z,14.00
2023-04-24T08:24:21.016Z,14.50
2023-04-24T08:26:51.209Z,14.30
2023-04-24T08:29:19.198Z,14.10
2023-04-24T08:31:48.541Z,13.70
2023-04-24T08:34:16.549Z,13.30
2023-04-24T08:36:47.406Z,13.10
2023-04-24T08:39:15.851Z,12.90
2023-04-24T08:41:46.293Z,12.40
2023-04-24T08:44:17.113Z,12.50
2023-04-24T08:46:46.725Z,12.50
2023-04-24T08:49:17.634Z,12.50
2023-04-24T08:51:47.919Z,12.50
2023-04-24T08:54:16.031Z,12.60
2023-04-24T08:56:46.360Z,12.50
2023-04-24T08:59:15.301Z,12.30
2023-04-24T09:01:43.697Z,12.30
2023-04-24T09:04:13.362Z,12.20
2023-04-24T09:06:44.036Z,12.20
2023-04-24T09:09:13.682Z,12.10
2023-04-24T09:11:42.424Z,12.10
2023-04-24T09:14:12.158Z,12.10
2023-04-24T09:16:40.154Z,12.00
2023-04-24T09:19:08.160Z,12.00
2023-04-24T09:21:37.060Z,12.00
2023-04-24T09:24:08.318Z,12.00
2023-04-24T09:26:38.424Z,12.00
2023-04-24T09:29:06.636Z,12.10
2023-04-24T09:31:34.641Z,12.20
2023-04-24T09:34:08.288Z,12.20
2023-04-24T09:36:39.378Z,12.20
2023-04-24T09:39:11.973Z,12.30
2023-04-24T09:41:46.901Z,12.50
2023-04-24T09:44:16.471Z,12.70
2023-04-24T09:46:45.695Z,12.50
2023-04-24T09:49:17.639Z,12.40
2023-04-24T09:51:45.747Z,12.40
2023-04-24T09:54:18.287Z,12.40
2023-04-24T09:56:48.600Z,12.40
2023-04-24T09:59:17.756Z,12.30
2023-04-24T10:01:46.552Z,12.40
2023-04-24T10:04:19.534Z,12.40
2023-04-24T10:06:49.842Z,12.60
2023-04-24T10:09:20.101Z,12.50
2023-04-24T10:11:49.804Z,12.30
2023-04-24T10:14:23.732Z,12.20
2023-04-24T10:16:54.653Z,12.00
2023-04-24T10:19:23.948Z,11.80
2023-04-24T10:21:52.120Z,11.90
2023-04-24T10:24:22.513Z,11.80
2023-04-24T10:26:50.966Z,11.80
2023-04-24T10:29:20.776Z,11.60
2023-04-24T10:31:48.832Z,11.50
2023-04-24T10:34:18.749Z,11.60
2023-04-24T10:36:52.705Z,11.60
2023-04-24T10:39:27.351Z,11.80
2023-04-24T10:41:58.493Z,12.10
2023-04-24T10:44:27.765Z,12.00
2023-04-24T10:46:57.684Z,11.80
2023-04-24T10:49:31.023Z,11.80
2023-04-24T10:52:04.213Z,11.60
2023-04-24T10:54:37.730Z,11.50
2023-04-24T10:57:33.666Z,11.80
2023-04-24T11:00:20.350Z,11.70
2023-04-24T11:02:53.893Z,11.80
2023-04-24T11:05:25.075Z,11.80
2023-04-24T11:08:16.952Z,11.80
2023-04-24T11:10:56.735Z,11.50
2023-04-24T11:13:25.460Z,11.40
2023-04-24T11:16:14.500Z,11.40
2023-04-24T11:18:46.907Z,11.20
2023-04-24T11:21:15.489Z,11.20
2023-04-24T11:23:43.476Z,11.20
2023-04-24T11:26:20.950Z,11.40
2023-04-24T11:28:50.319Z,11.40
2023-04-24T11:31:38.461Z,11.30
2023-04-24T11:34:10.742Z,11.20
2023-04-24T11:36:39.074Z,11.20
2023-04-24T11:39:07.520Z,11.40
2023-04-24T11:41:37.337Z,11.50
2023-04-24T11:44:08.060Z,11.60
2023-04-24T11:46:36.359Z,11.40
2023-04-24T11:49:04.812Z,11.20
2023-04-24T11:51:43.813Z,11.20
2023-04-24T11:54:19.252Z,11.30
2023-04-24T11:56:49.005Z,11.50
2023-04-24T11:59:17.157Z,11.50
2023-04-24T12:01:46.473Z,11.50
2023-04-24T12:04:15.381Z,11.70
2023-04-24T12:07:01.332Z,11.60
2023-04-24T12:09:29.366Z,11.50
2023-04-24T12:11:59.049Z,11.70
2023-04-24T12:14:27.192Z,11.70
2023-04-24T12:16:55.186Z,11.70
2023-04-24T12:19:24.343Z,11.80
2023-04-24T12:22:10.212Z,11.80
2023-04-24T12:24:57.719Z,11.90
2023-04-24T12:27:27.514Z,12.10
2023-04-24T12:29:57.851Z,12.40
2023-04-24T12:32:28.214Z,12.50
2023-04-24T12:34:57.202Z,12.40
2023-04-24T12:37:26.181Z,12.60
2023-04-24T12:40:01.784Z,12.50
2023-04-24T12:42:32.258Z,12.50
2023-04-24T12:45:01.759Z,12.70
2023-04-24T12:47:30.463Z,12.70
2023-04-24T12:49:58.484Z,12.50
2023-04-24T12:52:27.609Z,12.30
2023-04-24T12:54:56.988Z,12.20
2023-04-24T12:57:25.221Z,12.00
2023-04-24T12:59:55.726Z,12.00
2023-04-24T13:02:24.200Z,11.90
2023-04-24T13:04:53.043Z,11.80
2023-04-24T13:07:21.375Z,11.80
2023-04-24T13:09:50.912Z,11.90
2023-04-24T13:12:19.588Z,11.80
2023-04-24T13:14:48.518Z,11.80
2023-04-24T13:17:18.294Z,11.60
2023-04-24T13:19:46.795Z,11.50
2023-04-24T13:22:15.207Z,11.50
2023-04-24T13:24:43.260Z,11.50
2023-04-24T13:27:11.429Z,11.50
2023-04-24T13:29:39.616Z,11.40
2023-04-24T13:32:07.934Z,11.40
2023-04-24T13:34:37.817Z,11.40
2023-04-24T13:37:06.891Z,11.40
2023-04-24T13:39:34.903Z,11.30
2023-04-24T13:42:04.926Z,11.30
2023-04-24T13:44:33.364Z,11.40
2023-04-24T13:47:01.547Z,11.40
2023-04-24T13:49:29.692Z,11.80
2023-04-24T13:51:59.277Z,12.00
2023-04-24T13:54:27.386Z,12.30
2023-04-24T13:56:55.774Z,12.10
2023-04-24T13:59:23.712Z,12.20
2023-04-24T14:01:51.780Z,12.00
2023-04-24T14:04:20.060Z,12.00
2023-04-24T14:06:48.112Z,12.00
2023-04-24T14:09:17.424Z,11.90
2023-04-24T14:11:45.452Z,12.00
2023-04-24T14:14:13.464Z,11.90
2023-04-24T14:16:41.580Z,12.00
2023-04-24T14:19:09.834Z,12.10
2023-04-24T14:21:37.809Z,12.30
2023-04-24T14:24:05.872Z,12.30
2023-04-24T14:26:35.678Z,12.30
2023-04-24T14:29:13.972Z,12.30
2023-04-24T14:31:43.273Z,12.10
2023-04-24T14:34:11.447Z,12.00
2023-04-24T14:36:39.463Z,11.90
2023-04-24T14:39:08.363Z,12.00
2023-04-24T14:41:38.462Z,12.10
2023-04-24T14:44:06.785Z,12.20
2023-04-24T14:46:34.988Z,12.30
2023-04-24T14:49:03.096Z,12.20
2023-04-24T14:51:31.440Z,12.20
2023-04-24T14:54:00.147Z,12.40
2023-04-24T14:56:28.173Z,12.30
2023-04-24T14:58:57.550Z,12.20
2023-04-24T15:01:26.386Z,12.30
2023-04-24T15:03:54.925Z,12.40
2023-04-24T15:06:23.213Z,12.60
2023-04-24T15:08:51.227Z,12.90
2023-04-24T15:11:19.984Z,12.90
2023-04-24T15:13:48.273Z,12.80
2023-04-24T15:16:18.202Z,12.60
2023-04-24T15:18:46.272Z,12.40
2023-04-24T15:21:14.624Z,12.20
2023-04-24T15:23:42.624Z,12.00
2023-04-24T15:26:10.642Z,12.00
2023-04-24T15:28:38.631Z,12.10
2023-04-24T15:31:06.731Z,12.20
2023-04-24T15:33:36.298Z,12.20
2023-04-24T15:36:04.717Z,12.20
2023-04-24T15:38:33.244Z,12.30
2023-04-24T15:41:01.237Z,12.50
2023-04-24T15:43:32.012Z,12.50
2023-04-24T15:46:00.019Z,12.50
2023-04-24T15:48:29.146Z,12.50
2023-04-24T15:50:59.570Z,12.50
2023-04-24T15:53:28.424Z,12.40
2023-04-24T15:55:57.105Z,12.40
2023-04-24T15:58:25.104Z,12.30
2023-04-24T16:00:54.115Z,12.30
2023-04-24T16:03:22.593Z,12.40
2023-04-24T16:05:50.787Z,12.40
2023-04-24T16:08:21.241Z,12.30
2023-04-24T16:10:49.239Z,12.20
2023-04-24T16:13:18.630Z,12.20
2023-04-24T16:15:47.381Z,12.30
2023-04-24T16:18:15.387Z,12.40
2023-04-24T16:20:43.424Z,12.60
2023-04-24T16:23:11.425Z,12.60
2023-04-24T16:25:40.801Z,12.70
2023-04-24T16:28:08.885Z,12.70
2023-04-24T16:30:37.538Z,12.60
2023-04-24T16:33:07.482Z,12.50
2023-04-24T16:35:35.551Z,12.30
2023-04-24T16:38:04.680Z,12.20
2023-04-24T16:40:32.771Z,12.00
2023-04-24T16:43:02.104Z,11.90
2023-04-24T16:45:30.043Z,11.90
2023-04-24T16:47:58.126Z,11.80
2023-04-24T16:50:26.220Z,11.70
2023-04-24T16:52:54.191Z,11.80
2023-04-24T16:55:22.140Z,11.70
2023-04-24T16:57:50.158Z,11.70
2023-04-24T17:00:20.027Z,11.80
2023-04-24T17:02:49.622Z,11.80
2023-04-24T17:05:19.355Z,11.80
2023-04-24T17:07:47.399Z,11.80
2023-04-24T17:10:15.384Z,11.70
2023-04-24T17:12:43.351Z,11.70
2023-04-24T17:15:11.817Z,11.70
2023-04-24T17:17:42.646Z,11.60
2023-04-24T17:20:21.148Z,11.40
2023-04-24T17:22:49.818Z,11.30
2023-04-24T17:25:17.935Z,11.20
2023-04-24T17:27:46.496Z,11.20
2023-04-24T17:30:15.582Z,11.10
2023-04-24T17:32:45.126Z,11.00
2023-04-24T17:35:13.287Z,10.90
2023-04-24T17:37:41.348Z,10.90
2023-04-24T17:40:10.589Z,10.90
2023-04-24T17:42:41.460Z,10.80
2023-04-24T17:45:10.816Z,10.70
2023-04-24T17:47:38.874Z,10.70
2023-04-24T17:50:08.997Z,10.70
2023-04-24T17:52:36.950Z,10.60
2023-04-24T17:55:05.485Z,10.60
2023-04-24T17:57:33.504Z,10.50
2023-04-24T18:00:01.457Z,10.40
2023-04-24T18:02:29.515Z,10.30
2023-04-24T18:04:57.547Z,10.30
2023-04-24T18:07:26.881Z,10.20
2023-04-24T18:09:56.325Z,10.10
2023-04-24T18:12:24.604Z,10.10
2023-04-24T18:14:57.265Z,10.10
2023-04-24T18:17:34.455Z,10.00
2023-04-24T18:20:02.409Z,9.90
2023-04-24T18:22:31.926Z,9.90
2023-04-24T18:25:00.073Z,9.80
2023-04-24T18:27:30.956Z,9.80
2023-04-24T18:29:59.347Z,9.70
2023-04-24T18:32:27.676Z,9.70
2023-04-24T18:34:55.872Z,9.60
2023-04-24T18:37:23.856Z,9.50
2023-04-24T18:39:54.308Z,9.50
2023-04-24T18:42:22.862Z,9.40
2023-04-24T18:44:51.332Z,9.40
2023-04-24T18:47:19.351Z,9.30
2023-04-24T18:49:47.303Z,9.20
2023-04-24T18:52:15.290Z,9.20
2023-04-24T18:54:43.269Z,9.10
2023-04-24T18:57:12.558Z,9.10
2023-04-24T18:59:40.565Z,9.10
2023-04-24T19:02:09.337Z,9.10
2023-04-24T19:04:37.578Z,9.00
2023-04-24T19:07:05.672Z,9.00
2023-04-24T19:09:33.763Z,8.90
2023-04-24T19:12:02.800Z,8.80
2023-04-24T19:14:32.198Z,8.80
2023-04-24T19:17:00.176Z,8.80
2023-04-24T19:19:28.901Z,8.70
2023-04-24T19:21:56.929Z,8.70
2023-04-24T19:24:26.069Z,8.60
2023-04-24T19:26:54.004Z,8.60
2023-04-24T19:29:22.021Z,8.50
2023-04-24T19:31:52.840Z,8.40
2023-04-24T19:34:20.903Z,8.40
2023-04-24T19:36:48.884Z,8.30
2023-04-24T19:39:17.270Z,8.30
2023-04-24T19:41:45.276Z,8.30
2023-04-24T19:44:14.703Z,8.20
2023-04-24T19:46:42.838Z,8.20
2023-04-24T19:49:13.274Z,8.10
2023-04-24T19:51:41.218Z,8.10
2023-04-24T19:54:09.772Z,8.00
2023-04-24T19:56:37.761Z,7.90
2023-04-24T19:59:05.757Z,7.90
2023-04-24T20:01:33.861Z,7.80
2023-04-24T20:04:02.278Z,7.80
2023-04-24T20:06:31.783Z,7.70
2023-04-24T20:08:59.740Z,7.70
2023-04-24T20:11:27.732Z,7.70
2023-04-24T20:13:56.494Z,7.60
2023-04-24T20:16:24.607Z,7.60
2023-04-24T20:18:52.605Z,7.50
2023-04-24T20:21:20.912Z,7.50
2023-04-24T20:23:52.016Z,7.40
2023-04-24T20:26:20.026Z,7.40
2023-04-24T20:28:48.256Z,7.40
2023-04-24T20:31:16.730Z,7.30
2023-04-24T20:33:45.592Z,7.30
2023-04-24T20:36:13.630Z,7.30
2023-04-24T20:38:41.548Z,7.30
2023-04-24T20:41:10.913Z,7.20
2023-04-24T20:43:38.904Z,7.20
2023-04-24T20:46:07.105Z,7.20
2023-04-24T20:48:35.600Z,7.10
2023-04-24T20:51:03.617Z,7.10
2023-04-24T20:53:31.610Z,7.00
2023-04-24T20:55:59.570Z,7.00
2023-04-24T20:58:28.927Z,6.90
2023-04-24T21:00:56.933Z,6.90
2023-04-24T21:03:24.944Z,6.90
2023-04-24T21:05:53.140Z,6.90
2023-04-24T21:08:21.092Z,6.80
2023-04-24T21:10:49.054Z,6.70
2023-04-24T21:13:16.978Z,6.70
2023-04-24T21:15:46.337Z,6.70
2023-04-24T21:18:14.370Z,6.60
2023-04-24T21:20:42.536Z,6.60
2023-04-24T21:23:10.508Z,6.50
2023-04-24T21:25:39.856Z,6.50
2023-04-24T21:28:07.855Z,6.40
2023-04-24T21:30:35.870Z,6.40
2023-04-24T21:33:05.354Z,6.40
2023-04-24T21:35:33.836Z,6.40
2023-04-24T21:38:01.772Z,6.40
2023-04-24T21:40:30.213Z,6.40
2023-04-24T21:42:58.207Z,6.30
2023-04-24T21:45:26.439Z,6.30
2023-04-24T21:47:54.454Z,6.30
2023-04-24T21:50:23.918Z,6.20
2023-04-24T21:52:51.940Z,6.20
2023-04-24T21:55:21.262Z,6.20
2023-04-24T21:57:49.386Z,6.10
2023-04-24T22:00:17.872Z,6.10
2023-04-24T22:02:45.950Z,6.10
2023-04-24T22:05:15.787Z,6.00
2023-04-24T22:07:49.045Z,6.00
2023-04-24T22:10:18.485Z,6.00
2023-04-24T22:12:46.512Z,5.90
2023-04-24T22:15:14.509Z,5.90
2023-04-24T22:17:43.599Z,5.90
2023-04-24T22:20:12.972Z,5.90
2023-04-24T22:22:40.933Z,5.90
2023-04-24T22:25:11.170Z,5.90
2023-04-24T22:27:39.104Z,5.80
2023-04-24T22:30:09.215Z,5.90
2023-04-24T22:32:38.114Z,5.80
2023-04-24T22:35:06.614Z,5.80
2023-04-24T22:37:34.954Z,5.70
2023-04-24T22:40:03.616Z,5.70
2023-04-24T22:42:32.987Z,5.70
2023-04-24T22:45:01.195Z,5.60
2023-04-24T22:47:29.147Z,5.60
2023-04-24T22:49:58.487Z,5.60
2023-04-24T22:52:28.824Z,5.60
2023-04-24T22:54:56.838Z,5.60
2023-04-24T22:57:24.863Z,5.60
2023-04-24T22:59:54.750Z,5.60
2023-04-24T23:02:22.986Z,5.60
2023-04-24T23:04:51.526Z,5.60
2023-04-24T23:07:19.531Z,5.60
2023-04-24T23:09:47.482Z,5.60
2023-04-24T23:12:15.491Z,5.50
2023-04-24T23:14:43.479Z,5.50
2023-04-24T23:17:12.774Z,5.50
2023-04-24T23:19:40.738Z,5.50
2023-04-24T23:22:08.704Z,5.50
2023-04-24T23:24:36.697Z,5.50
2023-04-24T23:27:04.828Z,5.50
2023-04-24T23:29:32.779Z,5.50
2023-04-24T23:32:01.939Z,5.50
2023-04-24T23:34:33.930Z,5.40
2023-04-24T23:37:02.328Z,5.30
2023-04-24T23:39:30.520Z,5.30
2023-04-24T23:41:59.706Z,5.30
2023-04-24T23:44:27.631Z,5.30
2023-04-24T23:46:55.602Z,5.30
2023-04-24T23:49:23.558Z,5.20
2023-04-24T23:51:53.161Z,5.20
2023-04-24T23:54:21.157Z,5.20
2023-04-24T23:56:49.163Z,5.20
2023-04-24T23:59:17.099Z,5.20
